Terminal Aerodrome Forecast
Issued by NWS Grand Forks, ND

Home | Current Version | Previous Version | Text Only | Print | Product List | Glossary On
Versions: 1 2 3 4 5 6 7 8 9 10 11 12 13
000
FTUS43 KFGF 100500
TAFGFK
TAF
KGFK 100520Z 1006/1106 15005KT P6SM SKC
     FM101600 17015KT P6SM SCT250
     FM110000 18008KT P6SM SCT250=

USA.gov is the U.S. government's official web portal to all federal, state and local government web resources and services.